Segovia, Spain

6:19 PM CET on December 09, 2016 (GMT +0100)
ISEGOVIA3 | | Change Station

Elev 3707 ft 40.91 °N, 4.06 °W | Updated 7 minutes ago

Clear
Clear
48.4 °F
Feels Like 47 °F
N
4.0
Wind Variable Wind from SW
Gusts 7.0 mph

Today
High -- | Low -- °F
--% Chance of Precip.
Yesterday
High -- | Low -- °F
Precip. -- in
Pressure 30.45 in
Visibility 6.2 miles
Clouds Mostly Cloudy 2500 ft
Windchill 47 °F
Dew Point 39 °F
Humidity 71%
Rainfall 0.00 in
Snow Depth Not available.
8:29 AM 5:48 PM
Waxing Gibbous, 75% visible
METAR LECV 091700Z VRB01KT 9999 BKN025 10/07 Q1031
Pressure 30.45 in
Visibility 6.2 miles
Clouds Mostly Cloudy 2500 ft
Windchill 47 °F
Dew Point 39 °F
Humidity 71%
Rainfall 0.00 in
Snow Depth Not available.
8:29 AM 5:48 PM
Waxing Gibbous, 75% visible
METAR LECV 091700Z VRB01KT 9999 BKN025 10/07 Q1031

10-Day Weather Forecast

×

Almanac

Astronomy

Dec. 09, 2016 Rise Set
Actual Time
Civil Twilight
Nautical Twilight
Astronomical Twilight
Moon
Length of Visible Light
Length of Day
Tomorrow will be .
, % of the Moon is Illuminated

Today's Extremes

Country Highs Country Lows

Community

WunderPhotos

Upload Photos

1,956,462 photos uploaded!

WunderBlog® & News

Nearby

Air Quality

  Air Quality AQ Index Pollutant
Not available.

Snow Depth

Station Depth Elevation

Earthquake Activity

City Distance Mag. Time & Date
Minimum magnitude displayed is 2.5.

Coastal Water Temperatures

Place Temperature

Stations

Nearby Weather Stations

Station Location Temp. Windchill Dew Point Humidity Wind Precip. Elev Updated Type